Time;durP1;ratioP1;P1;durP2;ratioP2;P2;SDS_P1;SDS_P2;PMS_P1;PMS_P2;Temp;Humidity;BMP_temperature;BMP_pressure;BME280_temperature;BME280_humidity;BME280_pressure;Samples;Min_cycle;Max_cycle;Signal;HPM_P1;HPM_P2
2023/08/24 00:00:35;;;;;;;6.30;3.58;;;;;;;-147.16;100.00;58666.56;7395637;19;20078;-70
2023/08/24 00:03:05;;;;;;;5.47;4.03;;;;;;;-147.16;100.00;58666.56;7395083;19;20019;-70
2023/08/24 00:05:36;;;;;;;5.38;3.88;;;;;;;-147.16;100.00;58666.56;7393496;19;20082;-70
2023/08/24 00:08:08;;;;;;;6.32;3.40;;;;;;;-147.16;100.00;58666.56;7395609;19;20014;-70
2023/08/24 00:10:37;;;;;;;4.72;4.03;;;;;;;-147.16;100.00;58666.56;7395391;19;20514;-70
2023/08/24 00:13:07;;;;;;;4.15;3.75;;;;;;;-147.16;100.00;58666.56;7394335;19;20480;-70
2023/08/24 00:15:35;;;;;;;5.22;3.55;;;;;;;-147.16;100.00;58666.56;7392996;19;20492;-70
2023/08/24 00:18:04;;;;;;;4.32;3.55;;;;;;;-147.16;100.00;58666.56;7395206;19;20006;-70
2023/08/24 00:20:33;;;;;;;5.45;4.05;;;;;;;-147.16;100.00;58666.56;7394814;19;20478;-70
2023/08/24 00:23:01;;;;;;;5.22;4.10;;;;;;;-147.16;100.00;58666.56;7393534;19;20018;-70
2023/08/24 00:25:33;;;;;;;5.50;4.00;;;;;;;-147.16;100.00;58666.56;7393545;19;20074;-70
2023/08/24 00:28:01;;;;;;;8.00;3.80;;;;;;;-147.16;100.00;58666.56;7395003;19;20007;-70
2023/08/24 00:30:30;;;;;;;11.05;4.13;;;;;;;-147.16;100.00;58666.56;7393182;19;20090;-70
2023/08/24 00:32:59;;;;;;;7.63;4.10;;;;;;;-147.16;100.00;58666.56;7398228;19;20017;-70
2023/08/24 00:35:27;;;;;;;4.32;3.38;;;;;;;-147.16;100.00;58666.56;7402477;19;20039;-70
2023/08/24 00:37:56;;;;;;;4.40;3.78;;;;;;;-147.16;100.00;58666.56;7401124;19;20033;-70
2023/08/24 00:40:25;;;;;;;7.07;3.60;;;;;;;-147.16;100.00;58666.56;7399202;19;20017;-70
2023/08/24 00:42:56;;;;;;;3.95;3.38;;;;;;;-147.16;100.00;58666.56;7401106;19;20421;-70
2023/08/24 00:45:24;;;;;;;4.45;3.47;;;;;;;-147.16;100.00;58666.56;7400581;19;20074;-70
2023/08/24 00:47:53;;;;;;;6.13;3.65;;;;;;;-147.16;100.00;58666.56;7401919;19;20011;-68
2023/08/24 00:50:22;;;;;;;6.65;3.58;;;;;;;-147.16;100.00;58666.56;7401833;19;20082;-70
2023/08/24 00:52:52;;;;;;;5.93;4.00;;;;;;;-147.16;100.00;58666.56;7401209;19;20011;-70
2023/08/24 00:55:20;;;;;;;4.20;3.60;;;;;;;-147.16;100.00;58666.56;7403372;19;20380;-71
2023/08/24 00:57:51;;;;;;;6.07;3.85;;;;;;;-147.16;100.00;58666.56;7401524;19;20010;-70
2023/08/24 01:00:22;;;;;;;6.32;3.50;;;;;;;-147.16;100.00;58666.56;7403214;19;20015;-70
2023/08/24 01:02:51;;;;;;;5.82;4.50;;;;;;;-147.16;100.00;58666.56;7400544;19;20017;-70
2023/08/24 01:05:19;;;;;;;4.47;3.63;;;;;;;-147.16;100.00;58666.56;7399396;19;20074;-66
2023/08/24 01:07:48;;;;;;;5.28;3.45;;;;;;;-147.16;100.00;58666.56;7399908;19;20090;-66
2023/08/24 01:10:17;;;;;;;6.65;4.43;;;;;;;-147.16;100.00;58666.56;7400248;19;20011;-67
2023/08/24 01:13:04;;;;;;;5.68;3.65;;;;;;;-147.16;100.00;58666.56;7399758;19;20031;-66
2023/08/24 01:15:41;;;;;;;4.63;4.22;;;;;;;-147.16;100.00;58666.56;7397975;19;20038;-66
2023/08/24 01:18:16;;;;;;;5.13;4.10;;;;;;;-147.16;100.00;58666.56;7397303;19;20115;-66
2023/08/24 01:20:45;;;;;;;4.72;3.80;;;;;;;-147.16;100.00;58666.56;7397338;19;20014;-66
2023/08/24 01:23:30;;;;;;;7.25;4.65;;;;;;;-147.16;100.00;58666.56;7396931;19;20022;-65
2023/08/24 01:26:10;;;;;;;5.00;4.38;;;;;;;-147.16;100.00;58666.56;7397880;19;20031;-65
2023/08/24 01:28:39;;;;;;;4.43;4.00;;;;;;;-147.16;100.00;58666.56;7397714;19;20343;-66
2023/08/24 01:31:08;;;;;;;8.35;4.70;;;;;;;-147.16;100.00;58666.56;7397167;19;20078;-66
2023/08/24 01:33:36;;;;;;;4.70;4.13;;;;;;;-147.16;100.00;58666.56;7398158;19;20032;-69
2023/08/24 01:36:05;;;;;;;4.95;4.10;;;;;;;-147.16;100.00;58666.56;7397079;19;20015;-66
2023/08/24 01:38:34;;;;;;;6.43;4.68;;;;;;;-147.16;100.00;58666.56;7396455;19;20018;-66
2023/08/24 01:41:17;;;;;;;4.80;4.15;;;;;;;-147.16;100.00;58666.56;7399095;19;20077;-65
2023/08/24 01:43:49;;;;;;;5.60;4.30;;;;;;;-147.16;100.00;58666.56;7397710;19;20066;-66
2023/08/24 01:46:19;;;;;;;4.93;3.70;;;;;;;-147.16;100.00;58666.56;7397470;19;20031;-66
2023/08/24 01:48:48;;;;;;;4.45;4.07;;;;;;;-147.16;100.00;58666.56;7399492;19;20014;-66
2023/08/24 01:51:18;;;;;;;6.85;4.13;;;;;;;-147.16;100.00;58666.56;7396370;19;20011;-66
2023/08/24 01:53:47;;;;;;;8.25;4.22;;;;;;;-147.16;100.00;58666.56;7397134;19;20011;-66
2023/08/24 01:56:19;;;;;;;6.60;4.22;;;;;;;-147.16;100.00;58666.56;7396578;19;20019;-65
2023/08/24 01:58:47;;;;;;;7.90;4.70;;;;;;;-147.16;100.00;58666.56;7396190;19;20019;-66
2023/08/24 02:01:16;;;;;;;6.70;4.55;;;;;;;-147.16;100.00;58666.56;7398448;19;20017;-65
2023/08/24 02:03:44;;;;;;;6.97;4.28;;;;;;;-147.16;100.00;58666.56;7397220;19;20031;-65
2023/08/24 02:06:13;;;;;;;5.45;4.43;;;;;;;-147.16;100.00;58666.56;7396548;19;20014;-66
2023/08/24 02:08:41;;;;;;;7.55;4.45;;;;;;;-147.16;100.00;58666.56;7396181;19;20014;-65
2023/08/24 02:11:10;;;;;;;5.43;4.72;;;;;;;-147.16;100.00;58666.56;7398163;19;20011;-65
2023/08/24 02:13:41;;;;;;;5.85;5.13;;;;;;;-147.16;100.00;58666.56;7396619;19;20028;-65
2023/08/24 02:16:12;;;;;;;5.65;4.63;;;;;;;-147.16;100.00;58666.56;7397588;19;20372;-65
2023/08/24 02:18:40;;;;;;;5.97;4.68;;;;;;;-147.16;100.00;58666.56;7396517;19;20489;-66
2023/08/24 02:21:14;;;;;;;6.15;4.57;;;;;;;-147.16;100.00;58666.56;7398973;19;20026;-66
2023/08/24 02:23:42;;;;;;;6.75;4.78;;;;;;;-147.16;100.00;58666.56;7398878;19;20019;-65
2023/08/24 02:26:11;;;;;;;4.75;4.25;;;;;;;-147.16;100.00;58666.56;7396545;19;20015;-65
2023/08/24 02:28:42;;;;;;;8.20;4.93;;;;;;;-147.16;100.00;58666.56;7397313;19;20006;-65
2023/08/24 02:31:10;;;;;;;7.68;4.50;;;;;;;-147.16;100.00;58666.56;7397831;19;20384;-66
2023/08/24 02:33:46;;;;;;;4.88;4.47;;;;;;;-147.16;100.00;58666.56;7395824;19;20054;-65
2023/08/24 02:36:14;;;;;;;5.07;4.47;;;;;;;-147.16;100.00;58666.56;7395140;19;20010;-66
2023/08/24 02:38:43;;;;;;;4.97;4.55;;;;;;;-147.16;100.00;58666.56;7395698;19;20364;-66
2023/08/24 02:41:12;;;;;;;5.20;4.25;;;;;;;-147.16;100.00;58666.56;7394907;19;20031;-67
2023/08/24 02:43:43;;;;;;;5.38;4.50;;;;;;;-147.16;100.00;58666.56;7395200;19;20022;-66
2023/08/24 02:46:12;;;;;;;7.55;4.75;;;;;;;-147.16;100.00;58666.56;7396137;19;20360;-67
2023/08/24 02:48:40;;;;;;;9.18;5.00;;;;;;;-147.16;100.00;58666.56;7395230;19;20023;-67
2023/08/24 02:51:10;;;;;;;5.70;4.88;;;;;;;-147.16;100.00;58666.56;7396900;19;20081;-67
2023/08/24 02:53:39;;;;;;;5.38;4.82;;;;;;;-147.16;100.00;58666.56;7395158;19;20466;-67
2023/08/24 02:56:07;;;;;;;5.55;5.05;;;;;;;-147.16;100.00;58666.56;7395243;19;20027;-66
2023/08/24 02:58:36;;;;;;;7.05;4.63;;;;;;;-147.16;100.00;58666.56;7394906;19;20046;-66
2023/08/24 03:01:10;;;;;;;5.55;4.65;;;;;;;-147.16;100.00;58666.56;7394834;19;20077;-66
2023/08/24 03:03:39;;;;;;;5.68;4.57;;;;;;;-147.16;100.00;58666.56;7395205;19;20185;-66
2023/08/24 03:06:09;;;;;;;5.07;4.57;;;;;;;-147.16;100.00;58666.56;7394463;19;20085;-67
2023/08/24 03:08:38;;;;;;;6.45;5.07;;;;;;;-147.16;100.00;58666.56;7396165;19;20379;-66
2023/08/24 03:11:07;;;;;;;5.82;5.15;;;;;;;-147.16;100.00;58666.56;7393802;19;20498;-66
2023/08/24 03:13:39;;;;;;;6.85;5.15;;;;;;;-147.16;100.00;58666.56;7395232;19;20018;-66
2023/08/24 03:16:11;;;;;;;6.57;5.28;;;;;;;-147.16;100.00;58666.56;7395680;19;20542;-65
2023/08/24 03:18:40;;;;;;;5.65;4.95;;;;;;;-147.16;100.00;58666.56;7395554;19;20066;-66
2023/08/24 03:21:09;;;;;;;5.40;4.90;;;;;;;-147.16;100.00;58666.56;7395895;19;20094;-66
2023/08/24 03:23:38;;;;;;;8.10;5.25;;;;;;;-147.16;100.00;58666.56;7393582;19;20381;-66
2023/08/24 03:26:06;;;;;;;5.82;5.15;;;;;;;-147.16;100.00;58666.56;7394749;19;20022;-65
2023/08/24 03:28:35;;;;;;;5.53;5.03;;;;;;;-147.16;100.00;58666.56;7395258;19;20081;-66
2023/08/24 03:31:03;;;;;;;6.47;5.45;;;;;;;-147.16;100.00;58666.56;7395475;19;20086;-66
2023/08/24 03:33:35;;;;;;;6.10;5.45;;;;;;;-147.16;100.00;58666.56;7394513;19;20380;-65
2023/08/24 03:36:10;;;;;;;6.28;5.10;;;;;;;-147.16;100.00;58666.56;7394168;19;20026;-66
2023/08/24 03:38:38;;;;;;;5.88;5.30;;;;;;;-147.16;100.00;58666.56;7393416;19;20109;-66
2023/08/24 03:41:07;;;;;;;5.90;5.07;;;;;;;-147.16;100.00;58666.56;7393015;19;20415;-66
2023/08/24 03:43:37;;;;;;;6.57;5.75;;;;;;;-147.16;100.00;58666.56;7393352;19;20086;-66
2023/08/24 03:46:06;;;;;;;5.60;4.72;;;;;;;-147.16;100.00;58666.56;7393634;19;20424;-66
2023/08/24 03:48:37;;;;;;;6.70;5.45;;;;;;;-147.16;100.00;58666.56;7394501;19;20007;-66
2023/08/24 03:51:06;;;;;;;5.93;5.22;;;;;;;-147.16;100.00;58666.56;7393693;19;20023;-66
2023/08/24 03:53:35;;;;;;;6.30;4.95;;;;;;;-147.16;100.00;58666.56;7394036;19;20078;-65
2023/08/24 03:56:03;;;;;;;6.30;4.88;;;;;;;-147.16;100.00;58666.56;7392918;19;20010;-65
2023/08/24 03:58:32;;;;;;;5.88;5.25;;;;;;;-147.16;100.00;58666.56;7392666;19;20002;-65
2023/08/24 04:01:00;;;;;;;6.03;4.97;;;;;;;-147.16;100.00;58666.56;7394403;19;20010;-65
2023/08/24 04:03:28;;;;;;;7.28;5.40;;;;;;;-147.16;100.00;58666.56;7393309;19;20087;-67
2023/08/24 04:05:59;;;;;;;7.60;6.30;;;;;;;-147.16;100.00;58666.56;7392222;19;20414;-65
2023/08/24 04:08:28;;;;;;;8.45;6.10;;;;;;;-147.16;100.00;58666.56;7399781;19;20079;-65
2023/08/24 04:10:56;;;;;;;7.68;6.90;;;;;;;-147.16;100.00;58666.56;7401701;19;20070;-65
2023/08/24 04:13:25;;;;;;;9.23;6.78;;;;;;;-147.16;100.00;58666.56;7400785;19;20014;-66
2023/08/24 04:15:53;;;;;;;8.85;5.88;;;;;;;-147.16;100.00;58666.56;7398805;19;20070;-65
2023/08/24 04:18:21;;;;;;;211.70;129.90;;;;;;;-147.16;100.00;58666.56;7399194;19;20037;-66
2023/08/24 04:20:50;;;;;;;59.42;39.88;;;;;;;-147.16;100.00;58666.56;7401740;19;20066;-65
2023/08/24 04:23:27;;;;;;;13.98;11.18;;;;;;;-147.16;100.00;58666.56;7400129;19;20073;-65
2023/08/24 04:25:55;;;;;;;9.27;8.07;;;;;;;-147.16;100.00;58666.56;7399927;19;20339;-65
2023/08/24 04:28:24;;;;;;;14.10;8.27;;;;;;;-147.16;100.00;58666.56;7401446;19;20074;-66
2023/08/24 04:30:53;;;;;;;13.60;8.95;;;;;;;-147.16;100.00;58666.56;7401312;19;20035;-65
2023/08/24 04:33:22;;;;;;;10.27;6.82;;;;;;;-147.16;100.00;58666.56;7398098;19;20018;-65
2023/08/24 04:35:51;;;;;;;6.70;6.00;;;;;;;-147.16;100.00;58666.56;7401475;19;20010;-65
2023/08/24 04:38:36;;;;;;;6.70;6.00;;;;;;;-147.16;100.00;58666.56;7396656;19;20086;-65
2023/08/24 04:41:07;;;;;;;8.07;5.95;;;;;;;-147.16;100.00;58666.56;7401221;19;20067;-65
2023/08/24 04:43:36;;;;;;;8.50;6.25;;;;;;;-147.16;100.00;58666.56;7398020;19;20090;-65
2023/08/24 04:46:05;;;;;;;8.05;6.80;;;;;;;-147.16;100.00;58666.56;7399199;19;20386;-65
2023/08/24 04:48:34;;;;;;;7.50;6.72;;;;;;;-147.16;100.00;58666.56;7398329;19;20017;-65
2023/08/24 04:51:03;;;;;;;12.85;7.65;;;;;;;-147.16;100.00;58666.56;7397666;19;20015;-65
2023/08/24 04:53:35;;;;;;;8.48;6.72;;;;;;;-147.16;100.00;58666.56;7397590;19;20051;-65
2023/08/24 04:56:03;;;;;;;9.70;7.80;;;;;;;-147.16;100.00;58666.56;7399899;19;20364;-66
2023/08/24 04:58:31;;;;;;;10.32;6.60;;;;;;;-147.16;100.00;58666.56;7400081;19;20023;-66
2023/08/24 05:01:00;;;;;;;8.07;6.78;;;;;;;-147.16;100.00;58666.56;7397197;19;20541;-66
2023/08/24 05:03:28;;;;;;;10.43;7.28;;;;;;;-147.16;100.00;58666.56;7398642;19;20411;-66
2023/08/24 05:05:57;;;;;;;8.60;6.32;;;;;;;-147.16;100.00;58666.56;7397132;19;20019;-66
2023/08/24 05:08:25;;;;;;;7.90;6.45;;;;;;;-147.16;100.00;58666.56;7399718;19;20078;-66
2023/08/24 05:10:56;;;;;;;8.75;6.97;;;;;;;-147.16;100.00;58666.56;7399536;19;20074;-66
2023/08/24 05:13:25;;;;;;;10.57;7.30;;;;;;;-147.16;100.00;58666.56;7398696;19;20022;-66
2023/08/24 05:15:53;;;;;;;9.15;6.88;;;;;;;-147.16;100.00;58666.56;7399809;19;20015;-66
2023/08/24 05:18:21;;;;;;;9.65;6.55;;;;;;;-147.16;100.00;58666.56;7395821;19;20541;-66
2023/08/24 05:20:50;;;;;;;11.77;6.30;;;;;;;-147.16;100.00;58666.56;7399594;19;20086;-66
2023/08/24 05:23:19;;;;;;;8.02;6.05;;;;;;;-147.16;100.00;58666.56;7398453;19;20015;-66
2023/08/24 05:25:47;;;;;;;8.40;6.35;;;;;;;-147.16;100.00;58666.56;7399075;19;20018;-66
2023/08/24 05:28:18;;;;;;;8.00;6.50;;;;;;;-147.16;100.00;58666.56;7398968;19;20066;-66
2023/08/24 05:30:46;;;;;;;13.60;7.22;;;;;;;-147.16;100.00;58666.56;7399055;19;20419;-65
2023/08/24 05:33:15;;;;;;;12.65;6.72;;;;;;;-147.16;100.00;58666.56;7398196;19;20070;-65
2023/08/24 05:35:43;;;;;;;8.20;6.15;;;;;;;-147.16;100.00;58666.56;7398746;19;20015;-65
2023/08/24 05:38:12;;;;;;;10.02;7.35;;;;;;;-147.16;100.00;58666.56;7398352;19;20501;-66
2023/08/24 05:40:42;;;;;;;11.70;6.53;;;;;;;-147.16;100.00;58666.56;7399930;19;20010;-65
2023/08/24 05:43:10;;;;;;;8.15;5.78;;;;;;;-147.16;100.00;58666.56;7399816;19;20086;-66
2023/08/24 05:45:44;;;;;;;6.45;5.80;;;;;;;-147.16;100.00;58666.56;7398481;19;20018;-65
2023/08/24 05:48:13;;;;;;;6.75;6.03;;;;;;;-147.16;100.00;58666.56;7396575;19;20014;-66
2023/08/24 05:50:46;;;;;;;10.02;6.47;;;;;;;-147.16;100.00;58666.56;7396151;19;20078;-65
2023/08/24 05:53:14;;;;;;;6.80;5.32;;;;;;;-147.16;100.00;58666.56;7396068;19;20015;-65
2023/08/24 05:55:43;;;;;;;8.65;5.60;;;;;;;-147.16;100.00;58666.56;7397831;19;20475;-65
2023/08/24 05:58:11;;;;;;;7.82;5.75;;;;;;;-147.16;100.00;58666.56;7397788;19;20074;-65
2023/08/24 06:00:42;;;;;;;7.63;5.60;;;;;;;-147.16;100.00;58666.56;7397568;19;20542;-66
2023/08/24 06:03:11;;;;;;;10.40;5.78;;;;;;;-147.16;100.00;58666.56;7396677;19;20066;-65
2023/08/24 06:05:39;;;;;;;5.70;5.20;;;;;;;-147.16;100.00;58666.56;7394489;19;20440;-66
2023/08/24 06:08:08;;;;;;;9.18;4.50;;;;;;;-147.16;100.00;58666.56;7396967;19;20070;-65
2023/08/24 06:10:36;;;;;;;6.07;4.82;;;;;;;-147.16;100.00;58666.56;7397223;19;20027;-66
2023/08/24 06:13:05;;;;;;;7.57;4.63;;;;;;;-147.16;100.00;58666.56;7396575;19;20078;-65
2023/08/24 06:15:33;;;;;;;6.22;4.97;;;;;;;-147.16;100.00;58666.56;7395047;19;20042;-66
2023/08/24 06:18:05;;;;;;;8.15;4.88;;;;;;;-147.16;100.00;58666.56;7397273;19;20074;-65
2023/08/24 06:20:33;;;;;;;7.97;4.70;;;;;;;-147.16;100.00;58666.56;7394898;19;20082;-65
2023/08/24 06:23:02;;;;;;;5.28;4.43;;;;;;;-147.16;100.00;58666.56;7394987;19;20427;-65
2023/08/24 06:25:31;;;;;;;5.40;4.07;;;;;;;-147.16;100.00;58666.56;7395688;19;20019;-65
2023/08/24 06:28:00;;;;;;;9.82;4.65;;;;;;;-147.16;100.00;58666.56;7395031;19;20010;-65
2023/08/24 06:30:32;;;;;;;5.60;4.00;;;;;;;-147.16;100.00;58666.56;7394578;19;20082;-66
2023/08/24 06:33:03;;;;;;;5.13;3.67;;;;;;;-147.16;100.00;58666.56;7396678;19;20015;-66
2023/08/24 06:35:32;;;;;;;5.25;3.65;;;;;;;-147.16;100.00;58666.56;7397569;19;20078;-65
2023/08/24 06:38:00;;;;;;;6.30;3.40;;;;;;;-147.16;100.00;58666.56;7395293;19;20018;-65
2023/08/24 06:40:29;;;;;;;8.45;3.38;;;;;;;-147.16;100.00;58666.56;7394869;19;20082;-65
2023/08/24 06:42:57;;;;;;;4.00;3.40;;;;;;;-147.16;100.00;58666.56;7394064;19;20086;-66
2023/08/24 06:45:26;;;;;;;3.60;3.30;;;;;;;-147.16;100.00;58666.56;7396586;19;20078;-65
2023/08/24 06:47:54;;;;;;;5.13;3.97;;;;;;;-147.16;100.00;58666.56;7394182;19;20536;-66
2023/08/24 06:50:26;;;;;;;4.60;3.45;;;;;;;-147.16;100.00;58666.56;7396398;19;20035;-66
2023/08/24 06:52:54;;;;;;;5.63;3.83;;;;;;;-147.16;100.00;58666.56;7394621;19;20014;-66
2023/08/24 06:55:22;;;;;;;8.40;3.80;;;;;;;-147.16;100.00;58666.56;7393874;19;20018;-66
2023/08/24 06:57:52;;;;;;;4.70;3.40;;;;;;;-147.16;100.00;58666.56;7393929;19;20021;-66
2023/08/24 07:00:21;;;;;;;5.95;3.60;;;;;;;-147.16;100.00;58666.56;7393396;19;20014;-64
2023/08/24 07:02:50;;;;;;;6.65;3.35;;;;;;;-147.16;100.00;58666.56;7393763;19;20032;-66
2023/08/24 07:05:20;;;;;;;6.07;3.53;;;;;;;-147.16;100.00;58666.56;7394035;19;20028;-66
2023/08/24 07:07:52;;;;;;;5.30;3.47;;;;;;;-147.16;100.00;58666.56;7393690;19;20482;-64
2023/08/24 07:10:20;;;;;;;5.85;3.08;;;;;;;-147.16;100.00;58666.56;7394008;19;20425;-66
2023/08/24 07:12:49;;;;;;;5.25;3.30;;;;;;;-147.16;100.00;58666.56;7394799;19;20037;-66
2023/08/24 07:15:17;;;;;;;4.13;3.33;;;;;;;-147.16;100.00;58666.56;7394888;19;20082;-66
2023/08/24 07:17:46;;;;;;;4.35;3.25;;;;;;;-147.16;100.00;58666.56;7395281;19;20028;-65
2023/08/24 07:20:15;;;;;;;9.73;4.47;;;;;;;-147.16;100.00;58666.56;7394051;19;20018;-66
2023/08/24 07:22:43;;;;;;;3.63;3.10;;;;;;;-147.16;100.00;58666.56;7395113;19;20387;-66
2023/08/24 07:25:14;;;;;;;6.25;3.45;;;;;;;-147.16;100.00;58666.56;7396202;19;20470;-65
2023/08/24 07:27:43;;;;;;;7.65;3.53;;;;;;;-147.16;100.00;58666.56;7393992;19;20014;-66
2023/08/24 07:30:13;;;;;;;6.30;3.80;;;;;;;-147.16;100.00;58666.56;7392811;19;20074;-66
2023/08/24 07:32:41;;;;;;;4.85;3.38;;;;;;;-147.16;100.00;58666.56;7393866;19;20078;-66
2023/08/24 07:35:10;;;;;;;4.40;3.45;;;;;;;-147.16;100.00;58666.56;7394056;19;20078;-66
2023/08/24 07:37:40;;;;;;;8.60;4.10;;;;;;;-147.16;100.00;58666.56;7392420;19;20498;-65
2023/08/24 07:40:11;;;;;;;5.82;3.58;;;;;;;-147.16;100.00;58666.56;7392666;19;20546;-65
2023/08/24 07:42:50;;;;;;;3.88;3.50;;;;;;;-147.16;100.00;58666.56;7393556;19;20015;-65
2023/08/24 07:45:19;;;;;;;3.67;3.30;;;;;;;-147.16;100.00;58666.56;7393763;19;20006;-65
2023/08/24 07:47:48;;;;;;;6.57;3.75;;;;;;;-147.16;100.00;58666.56;7391939;19;20070;-66
2023/08/24 07:50:16;;;;;;;4.40;2.95;;;;;;;-147.16;100.00;58666.56;7393497;19;20549;-65
2023/08/24 07:52:45;;;;;;;8.70;3.38;;;;;;;-147.16;100.00;58666.56;7393514;19;20066;-66
2023/08/24 07:55:13;;;;;;;6.38;4.03;;;;;;;-147.16;100.00;58666.56;7391478;19;20533;-65
2023/08/24 07:57:41;;;;;;;7.68;4.60;;;;;;;-147.16;100.00;58666.56;7393496;19;20086;-65
2023/08/24 08:00:14;;;;;;;5.25;4.18;;;;;;;-147.16;100.00;58666.56;7394010;19;20018;-65
2023/08/24 08:02:43;;;;;;;4.17;3.13;;;;;;;-147.16;100.00;58666.56;7393552;19;20019;-66
2023/08/24 08:05:12;;;;;;;4.05;3.03;;;;;;;-147.16;100.00;58666.56;7393284;19;21165;-65
2023/08/24 08:07:41;;;;;;;3.53;3.00;;;;;;;-147.16;100.00;58666.56;7391163;19;20018;-66
2023/08/24 08:10:10;;;;;;;5.65;2.58;;;;;;;-147.16;100.00;58666.56;7393463;19;20441;-65
2023/08/24 08:12:39;;;;;;;5.05;3.72;;;;;;;-147.16;100.00;58666.56;7393392;19;20023;-66
2023/08/24 08:15:08;;;;;;;6.28;2.95;;;;;;;-147.16;100.00;58666.56;7393986;19;20025;-66
2023/08/24 08:17:39;;;;;;;4.65;2.60;;;;;;;-147.16;100.00;58666.56;7393830;19;20011;-65
2023/08/24 08:20:09;;;;;;;5.70;2.70;;;;;;;-147.16;100.00;58666.56;7393945;19;20021;-66
2023/08/24 08:22:39;;;;;;;3.00;2.40;;;;;;;-147.16;100.00;58666.56;7392851;19;20011;-66
2023/08/24 08:25:05;;;;;;;4.32;2.50;;;;;;;-147.16;100.00;58666.56;7392893;19;20027;-65
2023/08/24 08:27:34;;;;;;;4.03;2.97;;;;;;;-147.16;100.00;58666.56;7390099;19;20369;-66
2023/08/24 08:30:04;;;;;;;5.85;2.60;;;;;;;-147.16;100.00;58666.56;7393205;19;20031;-65
2023/08/24 08:32:33;;;;;;;2.72;2.10;;;;;;;-147.16;100.00;58666.56;7393427;19;20033;-66
2023/08/24 08:35:05;;;;;;;7.63;2.28;;;;;;;-147.16;100.00;58666.56;7391268;19;20018;-66
2023/08/24 08:37:35;;;;;;;5.13;2.65;;;;;;;-147.16;100.00;58666.56;7390463;19;20359;-65
2023/08/24 08:40:33;;;;;;;5.35;2.55;;;;;;;-147.16;100.00;58666.56;7391027;19;20107;-66
2023/08/24 08:43:02;;;;;;;4.85;3.38;;;;;;;-147.16;100.00;58666.56;7391164;19;20525;-66
2023/08/24 08:45:31;;;;;;;3.80;2.20;;;;;;;-147.16;100.00;58666.56;7390473;19;20015;-65
2023/08/24 08:48:01;;;;;;;3.63;1.90;;;;;;;-147.16;100.00;58666.56;7390532;19;20018;-66
2023/08/24 08:50:35;;;;;;;4.97;2.40;;;;;;;-147.16;100.00;58666.56;7393402;19;20094;-65
2023/08/24 08:53:04;;;;;;;2.95;2.47;;;;;;;-147.16;100.00;58666.56;7390544;19;20017;-66
2023/08/24 08:55:33;;;;;;;4.57;2.78;;;;;;;-147.16;100.00;58666.56;7397115;19;20018;-66
2023/08/24 08:58:04;;;;;;;3.63;2.17;;;;;;;-147.16;100.00;58666.56;7400175;19;20027;-65
2023/08/24 09:00:34;;;;;;;3.95;2.20;;;;;;;-147.16;100.00;58666.56;7399830;19;20524;-65
2023/08/24 09:03:04;;;;;;;5.15;1.92;;;;;;;-147.16;100.00;58666.56;7397309;19;20078;-66
2023/08/24 09:05:35;;;;;;;4.88;1.95;;;;;;;-147.16;100.00;58666.56;7399165;19;20023;-65
2023/08/24 09:08:05;;;;;;;5.72;2.15;;;;;;;-147.16;100.00;58666.56;7398554;19;20083;-65
2023/08/24 09:10:33;;;;;;;4.57;2.40;;;;;;;-147.16;100.00;58666.56;7396842;19;20010;-66
2023/08/24 09:13:02;;;;;;;3.20;2.30;;;;;;;-147.16;100.00;58666.56;7398462;19;20350;-66
2023/08/24 09:15:38;;;;;;;5.55;2.80;;;;;;;-147.16;100.00;58666.56;7399224;19;20074;-65
2023/08/24 09:18:07;;;;;;;3.45;1.95;;;;;;;-147.16;100.00;58666.56;7397761;19;20011;-66
2023/08/24 09:20:39;;;;;;;2.20;1.80;;;;;;;-147.16;100.00;58666.56;7399302;19;20011;-65
2023/08/24 09:23:19;;;;;;;4.50;1.92;;;;;;;-147.16;100.00;58666.56;7397215;19;20015;-67
2023/08/24 09:25:49;;;;;;;2.58;2.15;;;;;;;-147.16;100.00;58666.56;7399328;19;20018;-67
2023/08/24 09:28:25;;;;;;;3.42;1.80;;;;;;;-147.16;100.00;58666.56;7396652;19;20049;-66
2023/08/24 09:30:55;;;;;;;2.97;1.80;;;;;;;-147.16;100.00;58666.56;7399088;19;20022;-66
2023/08/24 09:33:25;;;;;;;4.47;1.75;;;;;;;-147.16;100.00;58666.56;7396487;19;20347;-66
2023/08/24 09:36:01;;;;;;;3.13;1.55;;;;;;;-147.16;100.00;58666.56;7398384;19;20015;-66
2023/08/24 09:38:30;;;;;;;4.20;1.63;;;;;;;-147.16;100.00;58666.56;7398211;19;20401;-66
2023/08/24 09:41:05;;;;;;;2.67;1.80;;;;;;;-147.16;100.00;58666.56;7396011;19;20014;-66
2023/08/24 09:43:34;;;;;;;6.15;1.85;;;;;;;-147.16;100.00;58666.56;7396396;19;20481;-66
2023/08/24 09:46:04;;;;;;;2.72;1.75;;;;;;;-147.16;100.00;58666.56;7395375;19;20031;-66
2023/08/24 09:48:33;;;;;;;3.05;1.42;;;;;;;-147.16;100.00;58666.56;7396239;19;20086;-66
2023/08/24 09:51:07;;;;;;;2.60;1.50;;;;;;;-147.16;100.00;58666.56;7396753;19;20022;-65
2023/08/24 09:53:40;;;;;;;6.75;2.45;;;;;;;-147.16;100.00;58666.56;7397147;19;20010;-66
2023/08/24 09:56:11;;;;;;;5.93;1.88;;;;;;;-147.16;100.00;58666.56;7395916;19;20477;-66
2023/08/24 09:58:40;;;;;;;2.75;1.45;;;;;;;-147.16;100.00;58666.56;7395833;19;20529;-65
2023/08/24 10:01:09;;;;;;;4.90;1.70;;;;;;;-147.16;100.00;58666.56;7395797;19;20031;-66
2023/08/24 10:03:42;;;;;;;3.72;1.95;;;;;;;-147.16;100.00;58666.56;7397774;19;20021;-66
2023/08/24 10:06:15;;;;;;;3.33;1.88;;;;;;;-147.16;100.00;58666.56;7398112;19;20009;-66
2023/08/24 10:08:49;;;;;;;4.72;2.08;;;;;;;-147.16;100.00;58666.56;7396856;19;20077;-65
2023/08/24 10:11:22;;;;;;;3.70;1.85;;;;;;;-147.16;100.00;58666.56;7396365;19;20062;-65
2023/08/24 10:14:03;;;;;;;6.75;2.30;;;;;;;-147.16;100.00;58666.56;7397148;19;20021;-66
2023/08/24 10:16:32;;;;;;;4.57;1.70;;;;;;;-147.16;100.00;58666.56;7395781;19;20018;-65
2023/08/24 10:19:02;;;;;;;4.80;2.65;;;;;;;-147.16;100.00;58666.56;7395105;19;20094;-66
2023/08/24 10:21:33;;;;;;;6.07;2.00;;;;;;;-147.16;100.00;58666.56;7397346;19;20015;-65
2023/08/24 10:24:04;;;;;;;3.40;1.90;;;;;;;-147.16;100.00;58666.56;7394740;19;20529;-65
2023/08/24 10:26:34;;;;;;;4.78;1.67;;;;;;;-147.16;100.00;58666.56;7396671;19;20023;-65
2023/08/24 10:29:04;;;;;;;3.15;1.90;;;;;;;-147.16;100.00;58666.56;7395285;19;20374;-66
2023/08/24 10:31:33;;;;;;;4.85;1.92;;;;;;;-147.16;100.00;58666.56;7397135;19;20066;-66
2023/08/24 10:34:03;;;;;;;5.38;3.15;;;;;;;-147.16;100.00;58666.56;7394697;19;20085;-66
2023/08/24 10:36:34;;;;;;;2.95;2.13;;;;;;;-147.16;100.00;58666.56;7396665;19;20078;-65
2023/08/24 10:39:10;;;;;;;4.35;1.80;;;;;;;-147.16;100.00;58666.56;7396121;19;20014;-66
2023/08/24 10:41:51;;;;;;;9.27;2.30;;;;;;;-147.16;100.00;58666.56;7395262;19;20007;-65
2023/08/24 10:44:24;;;;;;;3.38;2.20;;;;;;;-147.16;100.00;58666.56;7394995;19;20006;-65
2023/08/24 10:47:09;;;;;;;3.38;1.70;;;;;;;-147.16;100.00;58666.56;7394604;19;20087;-65
2023/08/24 10:49:37;;;;;;;6.03;2.63;;;;;;;-147.16;100.00;58666.56;7395188;19;20017;-65
2023/08/24 10:52:24;;;;;;;14.57;3.35;;;;;;;-147.16;100.00;58666.56;7394023;19;20010;-65
2023/08/24 10:54:54;;;;;;;6.35;2.30;;;;;;;-147.16;100.00;58666.56;7394579;19;20073;-65
2023/08/24 10:57:21;;;;;;;3.03;2.20;;;;;;;-147.16;100.00;58666.56;7395726;19;20078;-65
2023/08/24 11:00:05;;;;;;;3.15;2.05;;;;;;;-147.16;100.00;58666.56;7394131;19;20014;-65
2023/08/24 11:02:43;;;;;;;4.50;2.47;;;;;;;-147.16;100.00;58666.56;7394779;19;20485;-65
2023/08/24 11:05:19;;;;;;;6.47;2.80;;;;;;;-147.16;100.00;58666.56;7394480;19;20070;-66
2023/08/24 11:07:58;;;;;;;5.40;2.78;;;;;;;-147.16;100.00;58666.56;7393372;19;20074;-66
2023/08/24 11:10:28;;;;;;;6.57;2.40;;;;;;;-147.16;100.00;58666.56;7394867;19;20011;-66
2023/08/24 11:13:07;;;;;;;3.05;2.20;;;;;;;-147.16;100.00;58666.56;7394973;19;20014;-66
2023/08/24 11:15:37;;;;;;;3.15;2.85;;;;;;;-147.16;100.00;58666.56;7393937;19;20019;-66
2023/08/24 11:18:30;;;;;;;3.67;2.40;;;;;;;-147.16;100.00;58666.56;7392862;19;20078;-66
2023/08/24 11:21:02;;;;;;;3.57;2.53;;;;;;;-147.16;100.00;58666.56;7393233;19;20078;-66
2023/08/24 11:23:34;;;;;;;5.17;2.37;;;;;;;-147.16;100.00;58666.56;7393309;19;20088;-66